createdAt,value
2018-11-11T00:00:46.521Z,21.27
2018-11-11T00:03:14.848Z,19.93
2018-11-11T00:05:43.174Z,25.77
2018-11-11T00:08:11.946Z,24.37
2018-11-11T00:10:40.245Z,23.93
2018-11-11T00:13:08.760Z,25.33
2018-11-11T00:15:37.287Z,23.63
2018-11-11T00:18:05.837Z,22.70
2018-11-11T00:20:45.156Z,23.40
2018-11-11T00:23:27.490Z,22.10
2018-11-11T00:26:04.548Z,21.23
2018-11-11T00:28:43.790Z,23.53
2018-11-11T00:31:22.629Z,24.83
2018-11-11T00:34:23.293Z,21.90
2018-11-11T00:37:29.990Z,25.27
2018-11-11T00:40:16.805Z,25.93
2018-11-11T00:43:16.929Z,23.77
2018-11-11T00:46:11.068Z,25.47
2018-11-11T00:49:08.065Z,26.17
2018-11-11T00:51:36.361Z,23.57
2018-11-11T00:54:04.701Z,22.73
2018-11-11T00:56:32.970Z,25.23
2018-11-11T00:59:01.251Z,25.37
2018-11-11T01:01:29.608Z,24.47
2018-11-11T01:03:57.868Z,24.40
2018-11-11T01:06:26.152Z,22.73
2018-11-11T01:08:54.412Z,26.00
2018-11-11T01:11:22.741Z,26.60
2018-11-11T01:13:51.005Z,26.27
2018-11-11T01:16:19.261Z,29.67
2018-11-11T01:18:47.521Z,29.30
2018-11-11T01:21:15.804Z,29.83
2018-11-11T01:23:44.085Z,32.27
2018-11-11T01:26:12.426Z,29.80
2018-11-11T01:28:40.792Z,32.53
2018-11-11T01:31:09.164Z,31.30
2018-11-11T01:33:37.454Z,33.27
2018-11-11T01:36:06.131Z,34.37
2018-11-11T01:38:34.473Z,34.33
2018-11-11T01:41:02.732Z,38.23
2018-11-11T01:43:31.012Z,41.80
2018-11-11T01:45:59.308Z,38.90
2018-11-11T01:48:27.594Z,37.63
2018-11-11T01:50:55.833Z,37.33
2018-11-11T01:53:24.142Z,40.20
2018-11-11T01:55:52.438Z,42.40
2018-11-11T01:58:20.660Z,39.77
2018-11-11T02:00:49.138Z,44.17
2018-11-11T02:03:17.364Z,37.80
2018-11-11T02:05:45.625Z,39.20
2018-11-11T02:08:14.049Z,45.87
2018-11-11T02:10:42.332Z,41.33
2018-11-11T02:13:10.676Z,40.83
2018-11-11T02:15:39.107Z,39.03
2018-11-11T02:18:07.439Z,38.53
2018-11-11T02:20:35.768Z,36.87
2018-11-11T02:23:04.071Z,36.17
2018-11-11T02:25:32.384Z,39.17
2018-11-11T02:28:00.744Z,35.00
2018-11-11T02:30:29.051Z,37.33
2018-11-11T02:32:57.282Z,42.40
2018-11-11T02:35:25.545Z,44.07
2018-11-11T02:37:53.805Z,40.73
2018-11-11T02:40:22.045Z,40.10
2018-11-11T02:42:50.492Z,38.97
2018-11-11T02:45:19.829Z,39.93
2018-11-11T02:47:48.139Z,35.53
2018-11-11T02:50:17.531Z,35.97
2018-11-11T02:52:46.861Z,32.47
2018-11-11T02:55:15.765Z,32.80
2018-11-11T02:57:44.680Z,36.30
2018-11-11T03:00:15.718Z,31.13
2018-11-11T03:02:44.640Z,33.23
2018-11-11T03:05:14.177Z,28.97
2018-11-11T03:07:42.465Z,33.03
2018-11-11T03:10:12.088Z,33.20
2018-11-11T03:12:40.604Z,31.43
2018-11-11T03:15:09.999Z,29.07
2018-11-11T03:17:38.296Z,27.03
2018-11-11T03:20:07.298Z,26.07
2018-11-11T03:22:35.573Z,29.40
2018-11-11T03:25:03.941Z,31.33
2018-11-11T03:27:32.215Z,27.53
2018-11-11T03:30:00.511Z,30.20
2018-11-11T03:32:28.771Z,27.37
2018-11-11T03:34:57.031Z,29.80
2018-11-11T03:37:25.328Z,29.77
2018-11-11T03:39:53.568Z,30.17
2018-11-11T03:42:21.966Z,29.17
2018-11-11T03:44:50.244Z,31.40
2018-11-11T03:47:18.617Z,29.27
2018-11-11T03:49:46.897Z,26.93
2018-11-11T03:52:15.362Z,29.73
2018-11-11T03:54:43.940Z,28.13
2018-11-11T03:57:12.284Z,29.30
2018-11-11T03:59:40.593Z,30.53
2018-11-11T04:02:08.857Z,25.80
2018-11-11T04:04:37.105Z,28.97
2018-11-11T04:07:05.438Z,28.23
2018-11-11T04:09:33.697Z,27.80
2018-11-11T04:12:01.930Z,28.17
2018-11-11T04:14:30.251Z,31.43
2018-11-11T04:16:58.484Z,30.43
2018-11-11T04:19:26.748Z,26.93
2018-11-11T04:21:55.296Z,28.90
2018-11-11T04:24:23.775Z,29.87
2018-11-11T04:26:52.000Z,32.33
2018-11-11T04:29:20.430Z,29.53
2018-11-11T04:31:48.761Z,31.03
2018-11-11T04:34:17.209Z,28.20
2018-11-11T04:36:45.467Z,31.17
2018-11-11T04:39:13.884Z,29.50
2018-11-11T04:41:42.362Z,29.53
2018-11-11T04:44:10.616Z,25.67
2018-11-11T04:46:38.854Z,30.07
2018-11-11T04:49:07.178Z,30.07
2018-11-11T04:51:35.368Z,30.53
2018-11-11T04:54:03.703Z,30.20
2018-11-11T04:56:31.932Z,31.17
2018-11-11T04:59:00.239Z,27.60
2018-11-11T05:01:28.529Z,27.23
2018-11-11T05:03:56.716Z,31.13
2018-11-11T05:06:25.140Z,30.13
2018-11-11T05:08:53.392Z,27.90
2018-11-11T05:11:21.734Z,28.80
2018-11-11T05:13:50.029Z,29.63
2018-11-11T05:16:18.472Z,31.10
2018-11-11T05:18:46.708Z,31.23
2018-11-11T05:21:15.301Z,31.70
2018-11-11T05:23:43.670Z,25.80
2018-11-11T05:26:11.893Z,31.27
2018-11-11T05:28:40.215Z,30.00
2018-11-11T05:31:08.493Z,27.53
2018-11-11T05:33:36.785Z,27.87
2018-11-11T05:36:05.708Z,26.13
2018-11-11T05:38:34.069Z,28.30
2018-11-11T05:41:02.332Z,28.90
2018-11-11T05:43:30.610Z,27.23
2018-11-11T05:45:58.860Z,25.93
2018-11-11T05:48:27.093Z,26.93
2018-11-11T05:50:55.418Z,23.70
2018-11-11T05:53:23.700Z,24.13
2018-11-11T05:55:51.996Z,25.13
2018-11-11T05:58:20.463Z,24.43
2018-11-11T06:00:48.733Z,24.97
2018-11-11T06:03:17.050Z,26.80
2018-11-11T06:05:45.413Z,27.17
2018-11-11T06:08:13.674Z,27.73
2018-11-11T06:10:41.985Z,24.27
2018-11-11T06:13:10.245Z,27.47
2018-11-11T06:15:38.581Z,23.77
2018-11-11T06:18:06.868Z,27.57
2018-11-11T06:20:35.148Z,25.93
2018-11-11T06:23:03.416Z,21.93
2018-11-11T06:25:31.686Z,23.03
2018-11-11T06:27:59.985Z,25.00
2018-11-11T06:30:28.345Z,23.33
2018-11-11T06:32:56.598Z,24.90
2018-11-11T06:35:25.522Z,24.70
2018-11-11T06:37:53.796Z,22.60
2018-11-11T06:40:22.179Z,25.10
2018-11-11T06:42:50.461Z,26.00
2018-11-11T06:45:19.644Z,25.30
2018-11-11T06:47:47.959Z,25.30
2018-11-11T06:50:16.414Z,27.50
2018-11-11T06:52:44.999Z,25.43
2018-11-11T06:55:13.568Z,27.10
2018-11-11T06:57:41.860Z,28.47
2018-11-11T07:00:12.563Z,23.30
2018-11-11T07:02:51.022Z,24.97
2018-11-11T07:05:19.591Z,27.67
2018-11-11T07:07:47.930Z,26.70
2018-11-11T07:10:16.394Z,25.47
2018-11-11T07:12:44.656Z,26.10
2018-11-11T07:15:13.204Z,28.37
2018-11-11T07:17:41.788Z,26.23
2018-11-11T07:20:10.100Z,25.20
2018-11-11T07:22:38.441Z,24.13
2018-11-11T07:25:07.116Z,28.73
2018-11-11T07:27:35.702Z,27.77
2018-11-11T07:30:04.030Z,24.47
2018-11-11T07:32:32.434Z,24.57
2018-11-11T07:35:03.658Z,24.80
2018-11-11T07:37:32.037Z,23.13
2018-11-11T07:40:00.293Z,24.50
2018-11-11T07:42:28.752Z,24.63
2018-11-11T07:44:57.033Z,21.70
2018-11-11T07:47:25.723Z,23.33
2018-11-11T07:49:53.955Z,23.70
2018-11-11T07:52:22.404Z,23.93
2018-11-11T07:54:50.692Z,23.27
2018-11-11T07:57:19.184Z,23.63
2018-11-11T07:59:48.094Z,23.63
2018-11-11T08:02:17.421Z,21.87
2018-11-11T08:04:45.647Z,23.03
2018-11-11T08:07:16.809Z,21.50
2018-11-11T08:09:45.272Z,26.67
2018-11-11T08:12:13.546Z,24.50
2018-11-11T08:14:41.868Z,25.50
2018-11-11T08:17:10.252Z,23.57
2018-11-11T08:19:38.619Z,21.77
2018-11-11T08:22:06.874Z,22.90
2018-11-11T08:24:35.113Z,22.27
2018-11-11T08:27:03.441Z,21.13
2018-11-11T08:29:31.777Z,23.77
2018-11-11T08:32:00.010Z,20.53
2018-11-11T08:34:28.253Z,22.03
2018-11-11T08:36:56.593Z,22.23
2018-11-11T08:39:25.016Z,23.80
2018-11-11T08:41:53.293Z,22.43
2018-11-11T08:44:21.667Z,19.47
2018-11-11T08:46:49.940Z,19.87
2018-11-11T08:49:18.208Z,17.90
2018-11-11T08:51:46.505Z,16.57
2018-11-11T08:54:14.779Z,21.67
2018-11-11T08:56:43.042Z,17.37
2018-11-11T08:59:11.358Z,16.23
2018-11-11T09:01:39.620Z,16.23
2018-11-11T09:04:07.994Z,16.80
2018-11-11T09:06:36.362Z,16.67
2018-11-11T09:09:05.902Z,17.93
2018-11-11T09:11:34.218Z,17.27
2018-11-11T09:14:02.436Z,15.87
2018-11-11T09:16:30.806Z,15.50
2018-11-11T09:18:59.065Z,17.27
2018-11-11T09:21:27.519Z,16.67
2018-11-11T09:23:55.899Z,16.57
2018-11-11T09:26:24.201Z,16.53
2018-11-11T09:28:52.497Z,17.27
2018-11-11T09:31:20.893Z,16.93
2018-11-11T09:33:49.137Z,16.50
2018-11-11T09:36:17.639Z,19.57
2018-11-11T09:38:46.351Z,19.57
2018-11-11T09:41:14.662Z,16.17
2018-11-11T09:43:42.958Z,15.53
2018-11-11T09:46:11.331Z,15.30
2018-11-11T09:48:39.553Z,16.13
2018-11-11T09:51:07.872Z,15.83
2018-11-11T09:53:36.298Z,20.10
2018-11-11T09:56:04.624Z,19.80
2018-11-11T09:58:33.055Z,18.30
2018-11-11T10:01:01.295Z,18.83
2018-11-11T10:03:32.769Z,21.40
2018-11-11T10:06:07.982Z,19.80
2018-11-11T10:08:55.678Z,16.80
2018-11-11T10:11:30.937Z,19.93
2018-11-11T10:14:19.353Z,15.77
2018-11-11T10:16:53.085Z,18.90
2018-11-11T10:19:41.101Z,17.33
2018-11-11T10:23:15.461Z,19.53
2018-11-11T10:25:47.401Z,15.50
2018-11-11T10:28:22.420Z,17.83
2018-11-11T10:30:55.774Z,18.03
2018-11-11T10:35:38.456Z,17.87
2018-11-11T10:38:12.644Z,16.03
2018-11-11T10:40:46.916Z,15.17
2018-11-11T10:43:20.658Z,13.80
2018-11-11T10:45:58.558Z,17.43
2018-11-11T10:48:30.758Z,14.33
2018-11-11T10:51:01.106Z,14.50
2018-11-11T10:53:29.364Z,13.57
2018-11-11T10:55:57.638Z,16.43
2018-11-11T10:58:26.583Z,24.40
2018-11-11T11:01:00.210Z,14.97
2018-11-11T11:03:31.513Z,14.40
2018-11-11T11:06:00.221Z,13.37
2018-11-11T11:08:28.489Z,13.23
2018-11-11T11:10:56.893Z,15.83
2018-11-11T11:13:25.696Z,22.97
2018-11-11T11:15:53.837Z,25.70
2018-11-11T11:18:22.333Z,13.40
2018-11-11T11:20:50.629Z,12.93
2018-11-11T11:23:18.983Z,15.03
2018-11-11T11:25:47.307Z,14.33
2018-11-11T11:28:15.513Z,13.80
2018-11-11T11:30:43.760Z,14.77
2018-11-11T11:33:12.086Z,13.97
2018-11-11T11:35:40.411Z,13.67
2018-11-11T11:38:08.724Z,14.47
2018-11-11T11:40:36.992Z,11.43
2018-11-11T11:43:05.565Z,13.17
2018-11-11T11:45:33.840Z,13.80
2018-11-11T11:48:02.155Z,14.30
2018-11-11T11:50:30.518Z,13.27
2018-11-11T11:52:58.915Z,13.40
2018-11-11T11:55:28.223Z,13.17
2018-11-11T11:58:27.909Z,12.63
2018-11-11T12:00:56.234Z,15.90
2018-11-11T12:03:24.606Z,15.13
2018-11-11T12:05:52.846Z,14.30
2018-11-11T12:08:21.177Z,15.47
2018-11-11T12:10:49.426Z,19.13
2018-11-11T12:13:18.086Z,12.93
2018-11-11T12:15:46.475Z,13.33
2018-11-11T12:18:14.796Z,14.57
2018-11-11T12:20:43.141Z,13.73
2018-11-11T12:23:11.823Z,15.23
2018-11-11T12:25:40.480Z,14.37
2018-11-11T12:28:09.048Z,13.77
2018-11-11T12:30:38.686Z,11.47
2018-11-11T12:33:07.012Z,12.93
2018-11-11T12:35:35.304Z,13.93
2018-11-11T12:38:03.651Z,13.93
2018-11-11T12:40:31.984Z,14.23
2018-11-11T12:43:00.271Z,15.27
2018-11-11T12:45:28.743Z,13.23
2018-11-11T12:47:57.028Z,13.40
2018-11-11T12:50:25.648Z,14.37
2018-11-11T12:52:53.880Z,13.30
2018-11-11T12:55:25.986Z,13.70
2018-11-11T12:57:55.003Z,11.37
2018-11-11T13:00:23.325Z,13.00
2018-11-11T13:02:51.668Z,13.93
2018-11-11T13:05:19.993Z,11.27
2018-11-11T13:07:48.742Z,10.77
2018-11-11T13:10:17.056Z,14.10
2018-11-11T13:12:45.440Z,11.80
2018-11-11T13:15:14.424Z,13.97
2018-11-11T13:17:43.170Z,11.80
2018-11-11T13:20:13.684Z,11.87
2018-11-11T13:22:42.175Z,11.83
2018-11-11T13:25:11.693Z,11.37
2018-11-11T13:27:40.161Z,12.43
2018-11-11T13:30:10.219Z,12.53
2018-11-11T13:32:39.003Z,13.90
2018-11-11T13:35:08.645Z,12.17
2018-11-11T13:37:37.055Z,11.57
2018-11-11T13:40:07.966Z,12.07
2018-11-11T13:42:36.314Z,11.10
2018-11-11T13:45:05.144Z,12.50
2018-11-11T13:50:20.351Z,11.60
2018-11-11T13:52:49.074Z,10.57
2018-11-11T13:55:18.192Z,13.17
2018-11-11T13:57:47.376Z,10.73
2018-11-11T14:00:18.159Z,10.87
2018-11-11T14:02:46.597Z,11.57
2018-11-11T14:05:15.014Z,11.50
2018-11-11T14:07:44.520Z,10.00
2018-11-11T14:10:13.870Z,10.50
2018-11-11T14:12:42.168Z,10.80
2018-11-11T14:15:14.933Z,10.53
2018-11-11T14:17:44.217Z,10.73
2018-11-11T14:20:13.846Z,11.57
2018-11-11T14:22:44.495Z,10.03
2018-11-11T14:25:15.536Z,11.30
2018-11-11T14:27:43.965Z,12.80
2018-11-11T14:30:15.088Z,12.03
2018-11-11T14:32:44.099Z,10.53
2018-11-11T14:35:13.190Z,10.67
2018-11-11T14:37:42.001Z,10.00
2018-11-11T14:40:18.658Z,11.53
2018-11-11T14:42:47.460Z,9.60
2018-11-11T14:45:16.815Z,11.17
2018-11-11T14:47:46.462Z,9.37
2018-11-11T14:50:15.926Z,9.97
2018-11-11T14:52:44.994Z,10.00
2018-11-11T14:55:16.930Z,9.43
2018-11-11T14:57:45.329Z,10.17
2018-11-11T15:00:17.520Z,10.80
2018-11-11T15:02:55.757Z,10.57
2018-11-11T15:05:24.267Z,9.80
2018-11-11T15:07:52.840Z,11.40
2018-11-11T15:10:21.357Z,10.23
2018-11-11T15:12:50.100Z,9.63
2018-11-11T15:15:19.623Z,10.20
2018-11-11T15:17:48.830Z,9.23
2018-11-11T15:20:18.016Z,9.67
2018-11-11T15:22:46.864Z,10.60
2018-11-11T15:25:16.562Z,10.50
2018-11-11T15:27:45.633Z,9.90
2018-11-11T15:30:18.509Z,9.90
2018-11-11T15:32:47.182Z,11.67
2018-11-11T15:35:15.653Z,11.40
2018-11-11T15:37:44.009Z,24.43
2018-11-11T15:40:15.410Z,12.20
2018-11-11T15:42:43.734Z,10.33
2018-11-11T15:45:15.237Z,9.93
2018-11-11T15:47:43.690Z,11.20
2018-11-11T15:50:14.784Z,10.70
2018-11-11T15:52:44.917Z,11.30
2018-11-11T15:55:14.201Z,13.53
2018-11-11T15:57:42.786Z,11.07
2018-11-11T16:00:15.339Z,11.60
2018-11-11T16:02:44.237Z,11.30
2018-11-11T16:05:13.405Z,12.67
2018-11-11T16:07:42.747Z,11.73
2018-11-11T16:10:13.133Z,14.97
2018-11-11T16:12:45.555Z,13.80
2018-11-11T16:15:18.114Z,14.93
2018-11-11T16:17:47.754Z,15.93
2018-11-11T16:20:18.749Z,16.63
2018-11-11T16:22:48.370Z,16.13
2018-11-11T16:25:16.715Z,17.73
2018-11-11T16:27:45.901Z,16.97
2018-11-11T16:30:18.070Z,16.27
2018-11-11T16:32:46.813Z,22.10
2018-11-11T16:35:16.142Z,18.80
2018-11-11T16:37:44.499Z,16.77
2018-11-11T16:40:15.062Z,18.17
2018-11-11T16:42:44.108Z,22.27
2018-11-11T16:45:14.475Z,19.33
2018-11-11T16:47:42.744Z,21.27
2018-11-11T16:50:16.085Z,21.73
2018-11-11T16:52:45.260Z,22.47
2018-11-11T16:55:14.948Z,21.77
2018-11-11T16:57:43.405Z,23.50
2018-11-11T17:00:14.806Z,21.03
2018-11-11T17:02:43.642Z,24.53
2018-11-11T17:05:28.996Z,26.57
2018-11-11T17:07:57.292Z,27.30
2018-11-11T17:10:27.884Z,27.83
2018-11-11T17:12:57.348Z,27.03
2018-11-11T17:15:26.948Z,31.57
2018-11-11T17:17:55.221Z,33.07
2018-11-11T17:20:24.409Z,31.23
2018-11-11T17:22:53.720Z,34.33
2018-11-11T17:25:22.865Z,30.93
2018-11-11T17:27:51.374Z,30.63
2018-11-11T17:30:23.881Z,33.03
2018-11-11T17:32:53.239Z,38.00
2018-11-11T17:35:21.560Z,38.40
2018-11-11T17:37:49.982Z,38.33
2018-11-11T17:40:24.213Z,37.77
2018-11-11T17:42:53.310Z,30.80
2018-11-11T17:45:21.799Z,34.80
2018-11-11T17:47:50.844Z,36.83
2018-11-11T17:50:21.420Z,33.97
2018-11-11T17:52:49.669Z,35.20
2018-11-11T17:55:19.433Z,39.00
2018-11-11T17:57:47.750Z,39.60
2018-11-11T18:00:17.470Z,39.37
2018-11-11T18:02:46.101Z,37.93
2018-11-11T18:05:15.738Z,33.50
2018-11-11T18:07:44.061Z,37.57
2018-11-11T18:10:13.989Z,44.63
2018-11-11T18:12:42.396Z,37.47
2018-11-11T18:15:12.273Z,34.67
2018-11-11T18:17:41.405Z,34.80
2018-11-11T18:20:12.550Z,34.87
2018-11-11T18:22:40.897Z,37.80
2018-11-11T18:25:09.230Z,36.13
2018-11-11T18:27:37.724Z,34.00
2018-11-11T18:30:10.554Z,32.97
2018-11-11T18:32:38.992Z,31.07
2018-11-11T18:35:09.105Z,30.63
2018-11-11T18:37:37.649Z,29.30
2018-11-11T18:40:06.512Z,34.97
2018-11-11T18:42:35.073Z,36.07
2018-11-11T18:45:03.488Z,36.50
2018-11-11T18:47:31.840Z,35.87
2018-11-11T18:50:00.082Z,38.43
2018-11-11T18:52:28.405Z,42.73
2018-11-11T18:54:56.904Z,39.30
2018-11-11T18:57:25.337Z,37.60
2018-11-11T18:59:53.512Z,44.80
2018-11-11T19:02:22.043Z,49.33
2018-11-11T19:04:50.336Z,45.13
2018-11-11T19:07:18.642Z,39.90
2018-11-11T19:09:47.228Z,39.67
2018-11-11T19:12:15.509Z,41.47
2018-11-11T19:14:44.010Z,43.33
2018-11-11T19:17:12.317Z,45.83
2018-11-11T19:19:40.689Z,38.07
2018-11-11T19:22:09.059Z,40.17
2018-11-11T19:24:37.727Z,38.03
2018-11-11T19:27:05.852Z,53.23
2018-11-11T19:29:34.180Z,43.90
2018-11-11T19:32:02.577Z,132.27
2018-11-11T19:34:30.975Z,72.57
2018-11-11T19:36:59.317Z,54.30
2018-11-11T19:39:27.578Z,50.40
2018-11-11T19:41:55.941Z,43.77
2018-11-11T19:44:24.221Z,44.57
2018-11-11T19:46:52.717Z,44.53
2018-11-11T19:49:21.039Z,47.20
2018-11-11T19:51:49.491Z,43.10
2018-11-11T19:54:17.765Z,45.83
2018-11-11T19:56:46.230Z,42.87
2018-11-11T19:59:14.749Z,40.60
2018-11-11T20:01:43.325Z,42.70
2018-11-11T20:04:11.680Z,46.07
2018-11-11T20:06:40.142Z,49.37
2018-11-11T20:09:11.065Z,45.53
2018-11-11T20:11:39.585Z,43.77
2018-11-11T20:14:08.177Z,44.10
2018-11-11T20:16:36.893Z,43.83
2018-11-11T20:19:12.304Z,47.13
2018-11-11T20:21:40.949Z,47.83
2018-11-11T20:24:09.285Z,39.13
2018-11-11T20:26:37.635Z,41.47
2018-11-11T20:29:06.295Z,50.80
2018-11-11T20:31:34.611Z,54.83
2018-11-11T20:34:03.034Z,59.63
2018-11-11T20:36:31.269Z,46.47
2018-11-11T20:38:59.574Z,48.13
2018-11-11T20:41:27.901Z,48.30
2018-11-11T20:43:56.172Z,79.13
2018-11-11T20:46:24.463Z,58.03
2018-11-11T20:48:52.822Z,62.77
2018-11-11T20:51:21.106Z,57.60
2018-11-11T20:53:49.513Z,50.33
2018-11-11T20:56:17.910Z,56.47
2018-11-11T20:58:46.161Z,54.53
2018-11-11T21:01:14.450Z,53.40
2018-11-11T21:03:42.917Z,54.27
2018-11-11T21:06:11.124Z,57.57
2018-11-11T21:08:39.519Z,49.90
2018-11-11T21:11:07.800Z,47.07
2018-11-11T21:13:36.080Z,54.57
2018-11-11T21:16:04.365Z,44.60
2018-11-11T21:18:32.684Z,47.97
2018-11-11T21:21:01.358Z,45.53
2018-11-11T21:23:29.609Z,47.03
2018-11-11T21:25:57.959Z,49.13
2018-11-11T21:28:26.221Z,46.30
2018-11-11T21:30:54.524Z,40.03
2018-11-11T21:33:22.814Z,45.97
2018-11-11T21:35:51.312Z,47.23
2018-11-11T21:38:19.967Z,46.30
2018-11-11T21:40:48.498Z,50.07
2018-11-11T21:43:16.800Z,51.93
2018-11-11T21:45:45.354Z,48.27
2018-11-11T21:48:13.712Z,45.47
2018-11-11T21:50:42.221Z,42.50
2018-11-11T21:53:22.408Z,42.27
2018-11-11T21:55:50.948Z,43.80
2018-11-11T21:58:19.256Z,47.13
2018-11-11T22:00:47.596Z,54.63
2018-11-11T22:03:15.928Z,138.00
2018-11-11T22:05:44.378Z,43.17
2018-11-11T22:08:12.742Z,86.73
2018-11-11T22:10:41.347Z,45.77
2018-11-11T22:13:09.635Z,86.00
2018-11-11T22:15:38.018Z,54.47
2018-11-11T22:18:06.330Z,52.80
2018-11-11T22:20:34.647Z,43.57
2018-11-11T22:23:02.993Z,37.83
2018-11-11T22:25:31.340Z,44.53
2018-11-11T22:27:59.643Z,43.87
2018-11-11T22:30:27.988Z,40.90
2018-11-11T22:32:56.254Z,40.10
2018-11-11T22:35:24.525Z,41.60
2018-11-11T22:37:53.752Z,40.90
2018-11-11T22:40:22.068Z,42.43
2018-11-11T22:42:50.464Z,45.87
2018-11-11T22:45:18.809Z,39.10
2018-11-11T22:47:47.276Z,42.33
2018-11-11T22:50:17.029Z,41.67
2018-11-11T22:52:45.474Z,41.37
2018-11-11T22:55:13.673Z,47.93
2018-11-11T22:57:42.578Z,39.50
2018-11-11T23:00:20.625Z,31.63
2018-11-11T23:02:49.407Z,40.37
2018-11-11T23:05:18.999Z,38.03
2018-11-11T23:07:47.461Z,39.10
2018-11-11T23:10:15.893Z,36.43
2018-11-11T23:12:44.431Z,39.30
2018-11-11T23:15:13.857Z,41.20
2018-11-11T23:17:42.188Z,33.07
2018-11-11T23:20:12.208Z,35.60
2018-11-11T23:22:40.962Z,37.13
2018-11-11T23:25:10.734Z,41.67
2018-11-11T23:27:39.186Z,40.97
2018-11-11T23:30:09.822Z,33.97
2018-11-11T23:32:38.166Z,34.97
2018-11-11T23:35:06.817Z,29.73
2018-11-11T23:37:35.203Z,43.67
2018-11-11T23:40:03.480Z,56.67
2018-11-11T23:42:31.773Z,58.90
2018-11-11T23:45:00.087Z,50.73
2018-11-11T23:47:28.376Z,38.53
2018-11-11T23:49:56.714Z,38.83
2018-11-11T23:52:25.005Z,42.70
2018-11-11T23:54:53.612Z,40.33
2018-11-11T23:57:21.904Z,37.37
2018-11-11T23:59:50.373Z,37.13
